sensor_id;sensor_type;location;lat;lon;timestamp;pressure;altitude;pressure_sealevel;temperature;humidity
81387;BME280;70842;50.744;7.114;2023-06-22T00:02:24;101188.00;;;23.02;63.27
81387;BME280;70842;50.744;7.114;2023-06-22T00:04:51;101184.25;;;23.03;63.26
81387;BME280;70842;50.744;7.114;2023-06-22T00:07:17;101187.00;;;23.10;63.18
81387;BME280;70842;50.744;7.114;2023-06-22T00:09:44;101194.69;;;23.06;63.07
81387;BME280;70842;50.744;7.114;2023-06-22T00:12:10;101195.06;;;23.03;63.29
81387;BME280;70842;50.744;7.114;2023-06-22T00:14:37;101200.72;;;23.08;62.54
81387;BME280;70842;50.744;7.114;2023-06-22T00:17:03;101207.88;;;23.16;61.93
81387;BME280;70842;50.744;7.114;2023-06-22T00:19:29;101203.25;;;23.10;61.61
81387;BME280;70842;50.744;7.114;2023-06-22T00:21:56;101208.41;;;23.05;62.33
81387;BME280;70842;50.744;7.114;2023-06-22T00:24:26;101204.50;;;22.93;62.69
81387;BME280;70842;50.744;7.114;2023-06-22T00:26:52;101206.31;;;22.86;62.84
81387;BME280;70842;50.744;7.114;2023-06-22T00:29:19;101204.38;;;22.65;63.88
81387;BME280;70842;50.744;7.114;2023-06-22T00:31:45;101207.09;;;22.65;63.84
81387;BME280;70842;50.744;7.114;2023-06-22T00:34:12;101213.06;;;22.75;63.48
81387;BME280;70842;50.744;7.114;2023-06-22T00:36:38;101214.63;;;22.70;63.37
81387;BME280;70842;50.744;7.114;2023-06-22T00:39:07;101212.41;;;22.73;63.42
81387;BME280;70842;50.744;7.114;2023-06-22T00:41:34;101216.84;;;22.81;63.20
81387;BME280;70842;50.744;7.114;2023-06-22T00:44:00;101208.75;;;22.81;62.35
81387;BME280;70842;50.744;7.114;2023-06-22T00:46:27;101207.38;;;22.70;63.00
81387;BME280;70842;50.744;7.114;2023-06-22T00:48:54;101211.19;;;22.61;63.40
81387;BME280;70842;50.744;7.114;2023-06-22T00:51:23;101202.97;;;22.54;63.09
81387;BME280;70842;50.744;7.114;2023-06-22T00:53:51;101201.97;;;22.56;63.23
81387;BME280;70842;50.744;7.114;2023-06-22T00:56:19;101202.63;;;22.58;63.01
81387;BME280;70842;50.744;7.114;2023-06-22T00:58:51;101208.88;;;22.73;63.51
81387;BME280;70842;50.744;7.114;2023-06-22T01:01:19;101193.50;;;22.59;63.38
81387;BME280;70842;50.744;7.114;2023-06-22T01:03:50;101194.81;;;22.63;63.46
81387;BME280;70842;50.744;7.114;2023-06-22T01:06:22;101197.69;;;22.61;64.03
81387;BME280;70842;50.744;7.114;2023-06-22T01:09:02;101198.97;;;22.50;64.41
81387;BME280;70842;50.744;7.114;2023-06-22T01:11:42;101202.53;;;22.66;63.77
81387;BME280;70842;50.744;7.114;2023-06-22T01:14:17;101195.34;;;22.73;63.06
81387;BME280;70842;50.744;7.114;2023-06-22T01:16:48;101205.22;;;22.66;64.19
81387;BME280;70842;50.744;7.114;2023-06-22T01:19:46;101197.13;;;22.51;64.26
81387;BME280;70842;50.744;7.114;2023-06-22T01:22:31;101186.63;;;22.41;64.64
81387;BME280;70842;50.744;7.114;2023-06-22T01:27:53;101183.66;;;22.36;64.84
81387;BME280;70842;50.744;7.114;2023-06-22T01:30:24;101184.00;;;22.33;65.13
81387;BME280;70842;50.744;7.114;2023-06-22T01:32:54;101177.19;;;22.37;64.62
81387;BME280;70842;50.744;7.114;2023-06-22T01:35:21;101181.41;;;22.40;65.05
81387;BME280;70842;50.744;7.114;2023-06-22T01:37:49;101180.28;;;22.49;64.61
81387;BME280;70842;50.744;7.114;2023-06-22T01:40:16;101179.50;;;22.55;64.13
81387;BME280;70842;50.744;7.114;2023-06-22T01:42:43;101181.31;;;22.63;63.46
81387;BME280;70842;50.744;7.114;2023-06-22T01:45:11;101166.00;;;22.70;63.82
81387;BME280;70842;50.744;7.114;2023-06-22T01:47:38;101173.47;;;22.68;63.15
81387;BME280;70842;50.744;7.114;2023-06-22T01:50:06;101164.47;;;22.61;62.78
81387;BME280;70842;50.744;7.114;2023-06-22T01:52:32;101166.84;;;22.56;62.58
81387;BME280;70842;50.744;7.114;2023-06-22T01:55:00;101164.34;;;22.54;62.58
81387;BME280;70842;50.744;7.114;2023-06-22T01:57:27;101161.38;;;22.49;62.77
81387;BME280;70842;50.744;7.114;2023-06-22T02:00:04;101157.66;;;22.65;63.10
81387;BME280;70842;50.744;7.114;2023-06-22T02:02:38;101154.34;;;22.54;63.09
81387;BME280;70842;50.744;7.114;2023-06-22T02:05:07;101165.09;;;22.48;62.69
81387;BME280;70842;50.744;7.114;2023-06-22T02:07:41;101161.47;;;22.41;62.75
81387;BME280;70842;50.744;7.114;2023-06-22T02:10:11;101165.47;;;22.45;62.19
81387;BME280;70842;50.744;7.114;2023-06-22T02:12:41;101159.63;;;22.41;61.95
81387;BME280;70842;50.744;7.114;2023-06-22T02:15:10;101164.44;;;22.46;62.31
81387;BME280;70842;50.744;7.114;2023-06-22T02:17:38;101166.78;;;22.49;62.31
81387;BME280;70842;50.744;7.114;2023-06-22T02:20:05;101167.34;;;22.44;62.78
81387;BME280;70842;50.744;7.114;2023-06-22T02:22:34;101156.97;;;22.48;62.72
81387;BME280;70842;50.744;7.114;2023-06-22T02:25:00;101173.03;;;22.49;62.47
81387;BME280;70842;50.744;7.114;2023-06-22T02:27:27;101170.44;;;22.41;62.69
81387;BME280;70842;50.744;7.114;2023-06-22T02:29:53;101164.94;;;22.35;63.86
81387;BME280;70842;50.744;7.114;2023-06-22T02:32:19;101165.88;;;22.27;63.48
81387;BME280;70842;50.744;7.114;2023-06-22T02:34:46;101159.63;;;22.27;64.14
81387;BME280;70842;50.744;7.114;2023-06-22T02:37:14;101156.91;;;22.27;63.83
81387;BME280;70842;50.744;7.114;2023-06-22T02:39:41;101143.63;;;22.25;63.85
81387;BME280;70842;50.744;7.114;2023-06-22T02:42:07;101143.50;;;22.33;63.70
81387;BME280;70842;50.744;7.114;2023-06-22T02:44:34;101152.84;;;22.16;64.66
81387;BME280;70842;50.744;7.114;2023-06-22T02:47:00;101157.75;;;22.27;64.27
81387;BME280;70842;50.744;7.114;2023-06-22T02:49:26;101153.66;;;22.31;64.30
81387;BME280;70842;50.744;7.114;2023-06-22T02:51:53;101156.09;;;22.26;64.09
81387;BME280;70842;50.744;7.114;2023-06-22T02:54:20;101153.13;;;22.21;63.96
81387;BME280;70842;50.744;7.114;2023-06-22T02:56:46;101150.13;;;22.16;64.07
81387;BME280;70842;50.744;7.114;2023-06-22T02:59:14;101148.56;;;22.22;64.00
81387;BME280;70842;50.744;7.114;2023-06-22T03:01:40;101130.59;;;22.14;63.16
81387;BME280;70842;50.744;7.114;2023-06-22T03:04:07;101134.88;;;22.23;62.74
81387;BME280;70842;50.744;7.114;2023-06-22T03:06:34;101129.91;;;22.27;63.32
81387;BME280;70842;50.744;7.114;2023-06-22T03:09:04;101124.34;;;22.28;63.85
81387;BME280;70842;50.744;7.114;2023-06-22T03:11:32;101128.72;;;22.29;64.11
81387;BME280;70842;50.744;7.114;2023-06-22T03:13:59;101130.56;;;22.29;63.22
81387;BME280;70842;50.744;7.114;2023-06-22T03:16:26;101130.75;;;22.27;62.59
81387;BME280;70842;50.744;7.114;2023-06-22T03:18:53;101134.09;;;22.29;63.09
81387;BME280;70842;50.744;7.114;2023-06-22T03:21:22;101135.19;;;22.14;64.07
81387;BME280;70842;50.744;7.114;2023-06-22T03:23:49;101134.09;;;22.29;64.32
81387;BME280;70842;50.744;7.114;2023-06-22T03:26:18;101131.25;;;22.31;63.88
81387;BME280;70842;50.744;7.114;2023-06-22T03:28:45;101129.34;;;22.31;64.51
81387;BME280;70842;50.744;7.114;2023-06-22T03:31:11;101128.16;;;22.34;64.09
81387;BME280;70842;50.744;7.114;2023-06-22T03:33:38;101127.88;;;22.29;64.62
81387;BME280;70842;50.744;7.114;2023-06-22T03:36:04;101120.81;;;22.28;65.00
81387;BME280;70842;50.744;7.114;2023-06-22T03:38:31;101126.78;;;22.23;64.83
81387;BME280;70842;50.744;7.114;2023-06-22T03:40:57;101123.31;;;22.29;63.85
81387;BME280;70842;50.744;7.114;2023-06-22T03:43:24;101114.56;;;22.27;64.31
81387;BME280;70842;50.744;7.114;2023-06-22T03:45:50;101112.34;;;22.16;64.92
81387;BME280;70842;50.744;7.114;2023-06-22T03:48:17;101109.94;;;22.21;64.48
81387;BME280;70842;50.744;7.114;2023-06-22T03:50:43;101108.28;;;22.20;65.24
81387;BME280;70842;50.744;7.114;2023-06-22T03:53:10;101115.69;;;22.18;64.63
81387;BME280;70842;50.744;7.114;2023-06-22T03:55:37;101119.72;;;22.22;64.81
81387;BME280;70842;50.744;7.114;2023-06-22T03:58:03;101107.03;;;22.23;64.48
81387;BME280;70842;50.744;7.114;2023-06-22T04:00:32;101112.72;;;22.28;64.67
81387;BME280;70842;50.744;7.114;2023-06-22T04:02:58;101099.66;;;22.31;64.73
81387;BME280;70842;50.744;7.114;2023-06-22T04:05:25;101104.53;;;22.21;65.32
81387;BME280;70842;50.744;7.114;2023-06-22T04:07:51;101101.09;;;22.13;65.70
81387;BME280;70842;50.744;7.114;2023-06-22T04:10:18;101103.34;;;22.09;66.50
81387;BME280;70842;50.744;7.114;2023-06-22T04:12:44;101098.09;;;22.08;66.72
81387;BME280;70842;50.744;7.114;2023-06-22T04:15:10;101104.75;;;22.05;66.89
81387;BME280;70842;50.744;7.114;2023-06-22T04:17:38;101093.00;;;21.98;66.77
81387;BME280;70842;50.744;7.114;2023-06-22T04:20:05;101098.41;;;21.98;67.16
81387;BME280;70842;50.744;7.114;2023-06-22T04:22:31;101093.00;;;21.98;66.86
81387;BME280;70842;50.744;7.114;2023-06-22T04:24:58;101092.19;;;21.98;67.00
81387;BME280;70842;50.744;7.114;2023-06-22T04:27:24;101092.25;;;22.04;66.93
81387;BME280;70842;50.744;7.114;2023-06-22T04:29:51;101091.25;;;22.05;67.06
81387;BME280;70842;50.744;7.114;2023-06-22T04:32:18;101094.69;;;22.14;66.70
81387;BME280;70842;50.744;7.114;2023-06-22T04:34:44;101093.38;;;22.24;66.71
81387;BME280;70842;50.744;7.114;2023-06-22T04:37:11;101093.81;;;22.28;66.40
81387;BME280;70842;50.744;7.114;2023-06-22T04:39:42;101106.88;;;22.24;66.97
81387;BME280;70842;50.744;7.114;2023-06-22T04:42:09;101105.66;;;22.12;67.51
81387;BME280;70842;50.744;7.114;2023-06-22T04:44:36;101097.84;;;22.17;67.47
81387;BME280;70842;50.744;7.114;2023-06-22T04:47:02;101112.34;;;22.16;67.07
81387;BME280;70842;50.744;7.114;2023-06-22T04:49:30;101102.41;;;22.02;67.63
81387;BME280;70842;50.744;7.114;2023-06-22T04:52:02;101102.50;;;21.94;67.55
81387;BME280;70842;50.744;7.114;2023-06-22T04:54:29;101093.78;;;21.92;68.08
81387;BME280;70842;50.744;7.114;2023-06-22T04:56:55;101095.16;;;22.03;68.02
81387;BME280;70842;50.744;7.114;2023-06-22T04:59:27;101089.28;;;21.99;67.84
81387;BME280;70842;50.744;7.114;2023-06-22T05:02:00;101095.34;;;21.87;68.33
81387;BME280;70842;50.744;7.114;2023-06-22T05:04:27;101092.50;;;21.80;68.82
81387;BME280;70842;50.744;7.114;2023-06-22T05:06:54;101087.63;;;21.84;69.08
81387;BME280;70842;50.744;7.114;2023-06-22T05:09:21;101085.69;;;21.92;68.98
81387;BME280;70842;50.744;7.114;2023-06-22T05:11:48;101084.28;;;21.96;68.93
81387;BME280;70842;50.744;7.114;2023-06-22T05:14:14;101092.09;;;21.91;68.83
81387;BME280;70842;50.744;7.114;2023-06-22T05:16:41;101097.03;;;21.88;68.89
81387;BME280;70842;50.744;7.114;2023-06-22T05:19:08;101100.34;;;22.04;68.66
81387;BME280;70842;50.744;7.114;2023-06-22T05:21:35;101099.88;;;22.15;68.59
81387;BME280;70842;50.744;7.114;2023-06-22T05:24:02;101101.38;;;22.18;67.89
81387;BME280;70842;50.744;7.114;2023-06-22T05:26:30;101095.09;;;22.32;67.40
81387;BME280;70842;50.744;7.114;2023-06-22T05:28:58;101093.50;;;22.37;67.22
81387;BME280;70842;50.744;7.114;2023-06-22T05:31:26;101094.34;;;22.38;66.63
81387;BME280;70842;50.744;7.114;2023-06-22T05:33:53;101087.34;;;22.43;67.01
81387;BME280;70842;50.744;7.114;2023-06-22T05:36:20;101089.94;;;22.51;66.37
81387;BME280;70842;50.744;7.114;2023-06-22T05:38:52;101086.38;;;22.66;66.34
81387;BME280;70842;50.744;7.114;2023-06-22T05:41:19;101084.00;;;22.77;65.65
81387;BME280;70842;50.744;7.114;2023-06-22T05:43:45;101090.50;;;22.83;65.54
81387;BME280;70842;50.744;7.114;2023-06-22T05:46:12;101091.97;;;22.85;65.42
81387;BME280;70842;50.744;7.114;2023-06-22T05:48:38;101091.97;;;22.85;65.16
81387;BME280;70842;50.744;7.114;2023-06-22T05:51:04;101091.78;;;22.87;65.48
81387;BME280;70842;50.744;7.114;2023-06-22T05:53:31;101088.75;;;22.96;65.42
81387;BME280;70842;50.744;7.114;2023-06-22T05:55:57;101095.88;;;23.04;64.96
81387;BME280;70842;50.744;7.114;2023-06-22T05:58:24;101109.47;;;23.10;63.90
81387;BME280;70842;50.744;7.114;2023-06-22T06:00:50;101112.53;;;23.07;63.53
81387;BME280;70842;50.744;7.114;2023-06-22T06:03:16;101107.03;;;23.15;63.67
81387;BME280;70842;50.744;7.114;2023-06-22T06:05:43;101112.59;;;23.14;64.49
81387;BME280;70842;50.744;7.114;2023-06-22T06:08:11;101109.72;;;23.15;65.58
81387;BME280;70842;50.744;7.114;2023-06-22T06:10:38;101118.56;;;23.03;66.99
81387;BME280;70842;50.744;7.114;2023-06-22T06:13:05;101097.94;;;23.02;67.03
81387;BME280;70842;50.744;7.114;2023-06-22T06:15:32;101093.97;;;22.98;66.36
81387;BME280;70842;50.744;7.114;2023-06-22T06:17:59;101109.13;;;22.99;66.67
81387;BME280;70842;50.744;7.114;2023-06-22T06:20:26;101112.44;;;22.94;67.02
81387;BME280;70842;50.744;7.114;2023-06-22T06:22:54;101117.38;;;22.91;66.83
81387;BME280;70842;50.744;7.114;2023-06-22T06:25:22;101114.09;;;22.95;66.42
81387;BME280;70842;50.744;7.114;2023-06-22T06:27:50;101124.84;;;22.89;66.37
81387;BME280;70842;50.744;7.114;2023-06-22T06:30:18;101129.59;;;22.87;66.82
81387;BME280;70842;50.744;7.114;2023-06-22T06:32:46;101134.94;;;22.80;67.01
81387;BME280;70842;50.744;7.114;2023-06-22T06:35:14;101150.91;;;22.75;66.67
81387;BME280;70842;50.744;7.114;2023-06-22T06:37:44;101142.72;;;22.69;66.64
81387;BME280;70842;50.744;7.114;2023-06-22T06:40:12;101140.84;;;22.69;67.31
81387;BME280;70842;50.744;7.114;2023-06-22T06:42:43;101139.25;;;22.75;67.19
81387;BME280;70842;50.744;7.114;2023-06-22T06:45:12;101127.88;;;22.79;67.13
81387;BME280;70842;50.744;7.114;2023-06-22T06:47:39;101123.56;;;22.85;66.59
81387;BME280;70842;50.744;7.114;2023-06-22T06:50:06;101114.69;;;22.91;66.35
81387;BME280;70842;50.744;7.114;2023-06-22T06:52:34;101099.50;;;22.90;67.00
81387;BME280;70842;50.744;7.114;2023-06-22T06:55:04;101109.34;;;22.97;66.67
81387;BME280;70842;50.744;7.114;2023-06-22T06:57:35;101104.63;;;23.06;67.07
81387;BME280;70842;50.744;7.114;2023-06-22T07:00:05;101100.72;;;23.08;65.83
81387;BME280;70842;50.744;7.114;2023-06-22T07:02:35;101095.56;;;23.13;65.34
81387;BME280;70842;50.744;7.114;2023-06-22T07:05:02;101098.06;;;23.15;65.58
81387;BME280;70842;50.744;7.114;2023-06-22T07:07:30;101091.75;;;23.08;65.47
81387;BME280;70842;50.744;7.114;2023-06-22T07:09:57;101083.00;;;23.06;65.31
81387;BME280;70842;50.744;7.114;2023-06-22T07:12:23;101080.06;;;23.01;65.75
81387;BME280;70842;50.744;7.114;2023-06-22T07:14:52;101081.84;;;23.15;64.72
81387;BME280;70842;50.744;7.114;2023-06-22T07:17:19;101082.22;;;23.12;65.03
81387;BME280;70842;50.744;7.114;2023-06-22T07:19:45;101077.44;;;23.14;65.21
81387;BME280;70842;50.744;7.114;2023-06-22T07:22:11;101087.88;;;23.17;65.18
81387;BME280;70842;50.744;7.114;2023-06-22T07:24:38;101078.59;;;23.26;65.18
81387;BME280;70842;50.744;7.114;2023-06-22T07:27:04;101081.53;;;23.31;65.07
81387;BME280;70842;50.744;7.114;2023-06-22T07:29:33;101064.38;;;23.39;65.13
81387;BME280;70842;50.744;7.114;2023-06-22T07:31:59;101061.31;;;23.48;64.59
81387;BME280;70842;50.744;7.114;2023-06-22T07:34:26;101055.72;;;23.56;63.76
81387;BME280;70842;50.744;7.114;2023-06-22T07:36:53;101058.94;;;23.66;63.58
81387;BME280;70842;50.744;7.114;2023-06-22T07:39:19;101063.59;;;23.79;63.26
81387;BME280;70842;50.744;7.114;2023-06-22T07:41:52;101066.53;;;23.90;63.16
81387;BME280;70842;50.744;7.114;2023-06-22T07:44:19;101045.81;;;24.04;62.93
81387;BME280;70842;50.744;7.114;2023-06-22T07:46:45;101047.09;;;24.15;62.53
81387;BME280;70842;50.744;7.114;2023-06-22T07:49:12;101033.78;;;24.26;62.04
81387;BME280;70842;50.744;7.114;2023-06-22T07:51:38;101031.97;;;24.40;61.43
81387;BME280;70842;50.744;7.114;2023-06-22T07:54:04;101034.28;;;24.49;60.55
81387;BME280;70842;50.744;7.114;2023-06-22T07:56:31;101033.47;;;24.49;60.82
81387;BME280;70842;50.744;7.114;2023-06-22T07:58:58;101037.81;;;24.50;60.81
81387;BME280;70842;50.744;7.114;2023-06-22T08:01:27;101038.03;;;24.55;60.75
81387;BME280;70842;50.744;7.114;2023-06-22T08:03:53;101037.00;;;24.56;60.65
81387;BME280;70842;50.744;7.114;2023-06-22T08:06:20;101029.91;;;24.55;60.09
81387;BME280;70842;50.744;7.114;2023-06-22T08:08:46;101025.97;;;24.57;60.16
81387;BME280;70842;50.744;7.114;2023-06-22T08:11:15;101020.13;;;24.67;60.46
81387;BME280;70842;50.744;7.114;2023-06-22T08:13:41;101011.19;;;24.79;60.25
81387;BME280;70842;50.744;7.114;2023-06-22T08:16:07;101012.44;;;24.90;60.21
81387;BME280;70842;50.744;7.114;2023-06-22T08:18:34;101002.22;;;24.92;59.60
81387;BME280;70842;50.744;7.114;2023-06-22T08:21:00;101003.69;;;24.95;59.29
81387;BME280;70842;50.744;7.114;2023-06-22T08:23:30;100996.00;;;24.98;59.71
81387;BME280;70842;50.744;7.114;2023-06-22T08:25:56;100994.94;;;25.06;59.26
81387;BME280;70842;50.744;7.114;2023-06-22T08:28:23;100989.28;;;25.07;59.73
81387;BME280;70842;50.744;7.114;2023-06-22T08:30:49;100983.44;;;25.17;59.48
81387;BME280;70842;50.744;7.114;2023-06-22T08:33:16;100977.78;;;25.31;59.53
81387;BME280;70842;50.744;7.114;2023-06-22T08:35:57;100971.09;;;25.40;59.35
81387;BME280;70842;50.744;7.114;2023-06-22T08:38:24;100975.25;;;25.49;59.09
81387;BME280;70842;50.744;7.114;2023-06-22T08:40:51;100970.03;;;25.54;59.35
81387;BME280;70842;50.744;7.114;2023-06-22T08:43:17;100968.53;;;25.59;59.83
81387;BME280;70842;50.744;7.114;2023-06-22T08:45:43;100967.44;;;25.66;59.13
81387;BME280;70842;50.744;7.114;2023-06-22T08:48:10;100966.19;;;25.69;58.88
81387;BME280;70842;50.744;7.114;2023-06-22T08:50:37;100958.06;;;25.69;58.72
81387;BME280;70842;50.744;7.114;2023-06-22T08:53:04;100946.78;;;25.72;58.89
81387;BME280;70842;50.744;7.114;2023-06-22T08:55:30;100950.06;;;25.80;58.35
81387;BME280;70842;50.744;7.114;2023-06-22T09:02:12;100936.72;;;25.79;57.56
81387;BME280;70842;50.744;7.114;2023-06-22T09:04:39;100930.81;;;25.88;57.70
81387;BME280;70842;50.744;7.114;2023-06-22T09:07:06;100926.00;;;25.90;58.09
81387;BME280;70842;50.744;7.114;2023-06-22T09:09:32;100917.59;;;25.98;57.81
81387;BME280;70842;50.744;7.114;2023-06-22T09:11:59;100915.91;;;26.04;56.91
81387;BME280;70842;50.744;7.114;2023-06-22T09:14:25;100914.84;;;26.05;56.87
81387;BME280;70842;50.744;7.114;2023-06-22T09:16:52;100902.91;;;26.12;56.65
81387;BME280;70842;50.744;7.114;2023-06-22T09:19:18;100893.44;;;26.21;56.93
81387;BME280;70842;50.744;7.114;2023-06-22T09:21:45;100893.44;;;26.21;56.45
81387;BME280;70842;50.744;7.114;2023-06-22T09:24:11;100887.28;;;26.33;55.72
81387;BME280;70842;50.744;7.114;2023-06-22T09:26:37;100884.34;;;26.34;55.24
81387;BME280;70842;50.744;7.114;2023-06-22T09:29:07;100878.84;;;26.41;54.89
81387;BME280;70842;50.744;7.114;2023-06-22T09:31:33;100865.81;;;26.49;54.95
81387;BME280;70842;50.744;7.114;2023-06-22T09:34:00;100864.91;;;26.55;54.39
81387;BME280;70842;50.744;7.114;2023-06-22T09:36:26;100858.31;;;26.69;54.55
81387;BME280;70842;50.744;7.114;2023-06-22T09:38:53;100866.81;;;26.79;54.91
81387;BME280;70842;50.744;7.114;2023-06-22T09:41:25;100864.88;;;26.86;54.51
81387;BME280;70842;50.744;7.114;2023-06-22T09:43:51;100854.00;;;26.86;54.19
81387;BME280;70842;50.744;7.114;2023-06-22T09:46:21;100853.38;;;26.84;54.21
81387;BME280;70842;50.744;7.114;2023-06-22T09:48:51;100871.41;;;26.79;54.37
81387;BME280;70842;50.744;7.114;2023-06-22T09:51:17;100880.25;;;26.74;54.77
81387;BME280;70842;50.744;7.114;2023-06-22T09:53:46;100883.44;;;26.65;54.83
81387;BME280;70842;50.744;7.114;2023-06-22T09:56:13;100884.97;;;26.61;54.67
81387;BME280;70842;50.744;7.114;2023-06-22T09:58:45;100879.22;;;26.51;55.56
81387;BME280;70842;50.744;7.114;2023-06-22T10:01:13;100882.19;;;26.43;55.44
81387;BME280;70842;50.744;7.114;2023-06-22T10:03:42;100876.59;;;26.38;55.63
81387;BME280;70842;50.744;7.114;2023-06-22T10:06:09;100879.38;;;26.31;55.71
81387;BME280;70842;50.744;7.114;2023-06-22T10:08:35;100889.03;;;26.27;55.89
81387;BME280;70842;50.744;7.114;2023-06-22T10:11:03;100890.94;;;26.20;56.18
81387;BME280;70842;50.744;7.114;2023-06-22T10:13:30;100894.13;;;26.17;56.61
81387;BME280;70842;50.744;7.114;2023-06-22T10:15:56;100892.88;;;26.13;56.45
81387;BME280;70842;50.744;7.114;2023-06-22T10:18:23;100893.09;;;26.05;57.10
81387;BME280;70842;50.744;7.114;2023-06-22T10:20:50;100915.09;;;25.97;57.65
81387;BME280;70842;50.744;7.114;2023-06-22T10:23:20;100935.16;;;25.96;58.15
81387;BME280;70842;50.744;7.114;2023-06-22T10:25:47;100945.84;;;25.91;58.10
81387;BME280;70842;50.744;7.114;2023-06-22T10:28:14;100957.13;;;25.88;58.63
81387;BME280;70842;50.744;7.114;2023-06-22T10:30:41;100967.81;;;25.83;59.15
81387;BME280;70842;50.744;7.114;2023-06-22T10:33:08;100974.94;;;25.77;60.10
81387;BME280;70842;50.744;7.114;2023-06-22T10:35:36;100969.09;;;25.74;61.05
81387;BME280;70842;50.744;7.114;2023-06-22T10:38:04;100969.78;;;25.63;62.31
81387;BME280;70842;50.744;7.114;2023-06-22T10:40:30;100967.13;;;25.43;63.83
81387;BME280;70842;50.744;7.114;2023-06-22T10:42:57;100969.88;;;25.30;66.08
81387;BME280;70842;50.744;7.114;2023-06-22T10:45:23;100973.84;;;25.14;65.72
81387;BME280;70842;50.744;7.114;2023-06-22T10:47:49;100978.03;;;24.97;67.94
81387;BME280;70842;50.744;7.114;2023-06-22T10:50:16;100990.97;;;24.82;67.43
81387;BME280;70842;50.744;7.114;2023-06-22T10:52:42;100995.31;;;24.63;70.47
81387;BME280;70842;50.744;7.114;2023-06-22T10:55:10;101016.34;;;24.42;72.61
81387;BME280;70842;50.744;7.114;2023-06-22T10:57:36;101014.19;;;24.18;73.09
81387;BME280;70842;50.744;7.114;2023-06-22T11:00:03;101007.03;;;24.03;73.86
81387;BME280;70842;50.744;7.114;2023-06-22T11:02:33;100994.06;;;23.86;74.83
81387;BME280;70842;50.744;7.114;2023-06-22T11:05:00;100957.78;;;23.74;75.71
81387;BME280;70842;50.744;7.114;2023-06-22T11:07:27;100937.75;;;23.55;76.34
81387;BME280;70842;50.744;7.114;2023-06-22T11:09:55;100973.16;;;23.60;77.37
81387;BME280;70842;50.744;7.114;2023-06-22T11:12:21;101003.69;;;23.54;77.98
81387;BME280;70842;50.744;7.114;2023-06-22T11:14:48;101009.31;;;23.25;78.62
81387;BME280;70842;50.744;7.114;2023-06-22T11:17:16;101001.63;;;23.28;80.28
81387;BME280;70842;50.744;7.114;2023-06-22T11:19:44;100983.28;;;23.45;78.21
81387;BME280;70842;50.744;7.114;2023-06-22T11:22:10;100927.31;;;23.52;77.57
81387;BME280;70842;50.744;7.114;2023-06-22T11:24:37;100884.25;;;23.51;76.18
81387;BME280;70842;50.744;7.114;2023-06-22T11:27:03;100873.22;;;23.52;75.41
81387;BME280;70842;50.744;7.114;2023-06-22T11:29:31;100881.56;;;23.57;76.62
81387;BME280;70842;50.744;7.114;2023-06-22T11:32:18;100888.81;;;23.50;76.44
81387;BME280;70842;50.744;7.114;2023-06-22T11:34:44;100901.53;;;23.56;76.04
81387;BME280;70842;50.744;7.114;2023-06-22T11:37:10;100895.97;;;23.71;76.53
81387;BME280;70842;50.744;7.114;2023-06-22T11:39:37;100902.22;;;23.71;78.13
81387;BME280;70842;50.744;7.114;2023-06-22T11:42:09;100893.13;;;23.98;78.11
81387;BME280;70842;50.744;7.114;2023-06-22T11:44:35;100889.84;;;24.23;77.16
81387;BME280;70842;50.744;7.114;2023-06-22T11:47:02;100885.69;;;24.53;76.86
81387;BME280;70842;50.744;7.114;2023-06-22T11:49:30;100877.13;;;24.69;76.01
81387;BME280;70842;50.744;7.114;2023-06-22T11:51:57;100862.09;;;24.66;74.58
81387;BME280;70842;50.744;7.114;2023-06-22T11:54:23;100848.78;;;24.58;74.60
81387;BME280;70842;50.744;7.114;2023-06-22T11:56:50;100849.41;;;24.47;74.75
81387;BME280;70842;50.744;7.114;2023-06-22T11:59:16;100842.13;;;24.41;74.65
81387;BME280;70842;50.744;7.114;2023-06-22T12:01:43;100831.50;;;24.40;74.98
81387;BME280;70842;50.744;7.114;2023-06-22T12:04:09;100835.06;;;24.34;74.94
81387;BME280;70842;50.744;7.114;2023-06-22T12:06:38;100827.16;;;24.39;74.75
81387;BME280;70842;50.744;7.114;2023-06-22T12:09:08;100817.97;;;24.40;74.55
81387;BME280;70842;50.744;7.114;2023-06-22T12:11:34;100808.38;;;24.31;74.10
81387;BME280;70842;50.744;7.114;2023-06-22T12:14:01;100818.81;;;24.27;73.58
81387;BME280;70842;50.744;7.114;2023-06-22T12:16:28;100803.41;;;24.28;73.76
81387;BME280;70842;50.744;7.114;2023-06-22T12:18:55;100796.75;;;24.30;74.34
81387;BME280;70842;50.744;7.114;2023-06-22T12:21:21;100794.84;;;24.24;73.54
81387;BME280;70842;50.744;7.114;2023-06-22T12:23:51;100794.44;;;24.27;74.32
81387;BME280;70842;50.744;7.114;2023-06-22T12:26:17;100793.38;;;24.35;73.88
81387;BME280;70842;50.744;7.114;2023-06-22T12:28:44;100778.56;;;24.44;73.81
81387;BME280;70842;50.744;7.114;2023-06-22T12:31:10;100771.66;;;24.61;72.76
81387;BME280;70842;50.744;7.114;2023-06-22T12:33:37;100771.41;;;24.69;71.69
81387;BME280;70842;50.744;7.114;2023-06-22T12:36:03;100775.38;;;24.79;70.02
81387;BME280;70842;50.744;7.114;2023-06-22T12:38:31;100770.31;;;24.96;70.48
81387;BME280;70842;50.744;7.114;2023-06-22T12:40:57;100771.31;;;25.08;69.49
81387;BME280;70842;50.744;7.114;2023-06-22T12:43:24;100758.91;;;25.25;71.03
81387;BME280;70842;50.744;7.114;2023-06-22T12:45:50;100755.06;;;25.39;68.86
81387;BME280;70842;50.744;7.114;2023-06-22T12:48:16;100744.97;;;25.60;68.42
81387;BME280;70842;50.744;7.114;2023-06-22T12:50:43;100749.28;;;25.67;67.50
81387;BME280;70842;50.744;7.114;2023-06-22T12:53:10;100740.75;;;25.64;67.38
81387;BME280;70842;50.744;7.114;2023-06-22T12:55:36;100729.22;;;25.68;67.10
81387;BME280;70842;50.744;7.114;2023-06-22T12:58:05;100728.13;;;25.76;67.64
81387;BME280;70842;50.744;7.114;2023-06-22T13:00:31;100721.41;;;25.78;68.05